This is the latest recevied weather packets stored in our database for station/object DL3NBY. If no packets are shown the sender has not sent any weather packets the latest 10 day(s).
| Time | Temp. | Humidity | Pressure | Rain* | Wind** | Luminosity | Snow |
|---|---|---|---|---|---|---|---|
| 1777645259 | 22.78° C | 39% | 1024.7 hPa | 0 mm | - | - | - |
| 1777643449 | 22.22° C | 40% | 1024.9 hPa | 0 mm | - | - | - |
| 1777642243 | 21.67° C | 42% | 1025.2 hPa | 0 mm | - | - | - |
| 1777633256 | 20° C | 44% | 1026.8 hPa | 0 mm | - | - | - |
| 1777630844 | 18.89° C | 44% | 1027.2 hPa | 0 mm | - | - | - |
| 1777624873 | 16.11° C | 49% | 1027.8 hPa | 0 mm | - | - | - |
| 1777621877 | 15° C | 54% | 1027.7 hPa | 0 mm | - | - | - |
| 1777621254 | 14.44° C | 55% | 1027.8 hPa | 0 mm | - | - | - |
| 1777619444 | 12.22° C | 62% | 1027.9 hPa | 0 mm | - | - | - |
| 1777615222 | 7.78° C | 77% | 1027.9 hPa | 0 mm | - | - | - |
| 1777612267 | 3.33° C | 93% | 1027.7 hPa | 0 mm | - | - | - |
| 1777611663 | 2.78° C | 94% | 1027.8 hPa | 0 mm | - | - | - |
| 1777609874 | 0° C | 99% | 1027.7 hPa | 0 mm | - | - | - |
| 1777606838 | -0.56° C | 99% | 1027.4 hPa | 0 mm | - | - | - |
| 1777603219 | 0.56° C | 99% | 1027.4 hPa | 0 mm | - | - | - |
| 1777602616 | 0.56° C | 99% | 1027.4 hPa | 0 mm | - | - | - |
| 1777591868 | 3.89° C | 88% | 1027.6 hPa | 0 mm | - | - | - |
| 1777585231 | 4.44° C | 85% | 1027.2 hPa | 0 mm | - | - | - |
| 1777582216 | 5° C | 84% | 1027 hPa | 0 mm | - | - | - |
| 1777581672 | 5.56° C | 82% | 1027.2 hPa | 0 mm | - | - | - |
| 1777578657 | 6.11° C | 73% | 1027 hPa | 0 mm | - | - | - |
| 1777577450 | 8.33° C | 70% | 1026.7 hPa | 0 mm | - | - | - |
| 1777576264 | 15.56° C | 60% | 1026.5 hPa | 0 mm | - | - | - |
| 1777573229 | - | 1% | 1026 hPa | 0 mm | - | - | - |
| 1777570273 | - | 1% | 1026 hPa | 0 mm | - | - | - |
* Rain latest hour (hover to see other rain measurements)
** Current wind speed in m/s (hover to see current wind gust speed)